Time;durP1;ratioP1;P1;durP2;ratioP2;P2;SDS_P1;SDS_P2;PMS_P1;PMS_P2;Temp;Humidity;BMP_temperature;BMP_pressure;BME280_temperature;BME280_humidity;BME280_pressure;Samples;Min_cycle;Max_cycle;Signal;HPM_P1;HPM_P2
2022/07/21 00:01:23;;;;;;;15.07;10.43;;;23.40;88.70;;;;;;5114141;28;20020;-77
2022/07/21 00:03:49;;;;;;;18.00;10.48;;;23.40;88.80;;;;;;5113228;28;20027;-76
2022/07/21 00:06:15;;;;;;;13.55;10.45;;;23.40;89.00;;;;;;5114139;28;20019;-75
2022/07/21 00:08:41;;;;;;;16.02;10.93;;;23.40;89.30;;;;;;5113680;28;20020;-76
2022/07/21 00:11:07;;;;;;;20.63;10.63;;;23.30;90.10;;;;;;5113297;28;20058;-77
2022/07/21 00:13:32;;;;;;;15.30;11.35;;;23.20;90.70;;;;;;5109567;28;20543;-75
2022/07/21 00:15:58;;;;;;;27.75;17.00;;;23.20;90.70;;;;;;5112589;28;20037;-76
2022/07/21 00:18:27;;;;;;;16.17;11.50;;;23.20;91.10;;;;;;5111558;28;20031;-76
2022/07/21 00:20:55;;;;;;;17.73;11.32;;;23.20;91.40;;;;;;5109993;28;20050;-75
2022/07/21 00:23:26;;;;;;;18.17;11.50;;;23.10;91.70;;;;;;5113766;27;20023;-76
2022/07/21 00:25:52;;;;;;;15.88;10.60;;;23.10;92.20;;;;;;5110417;28;20024;-75
2022/07/21 00:28:18;;;;;;;18.50;10.80;;;23.00;92.60;;;;;;5094081;28;20037;-76
2022/07/21 00:30:45;;;;;;;20.33;11.43;;;23.00;93.00;;;;;;5111252;28;20104;-76
2022/07/21 00:33:10;;;;;;;16.88;10.23;;;23.00;93.10;;;;;;5111208;28;20062;-76
2022/07/21 00:35:37;;;;;;;15.43;10.75;;;23.00;93.40;;;;;;5110798;28;20051;-76
2022/07/21 00:38:03;;;;;;;16.52;10.23;;;23.00;93.60;;;;;;5091670;28;20023;-76
2022/07/21 00:40:29;;;;;;;14.93;10.73;;;22.90;94.10;;;;;;5111822;28;20035;-75
2022/07/21 00:42:56;;;;;;;18.10;11.38;;;22.80;94.30;;;;;;5118486;28;20016;-78
2022/07/21 00:45:21;;;;;;;14.50;10.05;;;22.80;94.80;;;;;;5124038;28;20041;-78
2022/07/21 00:47:47;;;;;;;13.93;10.80;;;22.80;95.20;;;;;;5134815;28;20405;-79
2022/07/21 00:50:20;;;;;;;16.60;11.50;;;22.80;95.30;;;;;;5112322;28;20207;-76
2022/07/21 00:52:47;;;;;;;13.15;10.30;;;22.80;95.60;;;;;;5115388;28;20032;-76
2022/07/21 00:55:15;;;;;;;18.05;11.35;;;22.80;95.60;;;;;;5107582;28;20494;-75
2022/07/21 00:57:42;;;;;;;17.48;10.95;;;22.70;96.20;;;;;;5094333;28;20027;-75
2022/07/21 01:00:11;;;;;;;18.80;12.20;;;22.70;96.70;;;;;;5109223;28;20058;-77
2022/07/21 01:02:37;;;;;;;15.13;11.02;;;22.60;97.00;;;;;;5112835;28;20020;-76
2022/07/21 01:05:05;;;;;;;19.45;10.88;;;22.70;97.20;;;;;;5092165;28;20407;-78
2022/07/21 01:07:31;;;;;;;15.13;10.50;;;22.60;97.20;;;;;;5113781;28;20098;-77
2022/07/21 01:09:57;;;;;;;14.52;10.60;;;22.60;97.70;;;;;;5115292;28;20047;-75
2022/07/21 01:12:23;;;;;;;13.68;10.00;;;22.50;98.10;;;;;;5091772;28;20032;-75
2022/07/21 01:14:50;;;;;;;13.88;10.25;;;22.50;98.40;;;;;;5111087;28;20049;-75
2022/07/21 01:17:15;;;;;;;18.77;11.18;;;22.40;98.40;;;;;;5110740;28;20172;-76
2022/07/21 01:19:42;;;;;;;15.48;10.20;;;22.50;98.50;;;;;;5111721;28;20102;-76
2022/07/21 01:22:08;;;;;;;15.95;10.95;;;22.40;98.90;;;;;;5109667;28;20108;-76
2022/07/21 01:24:34;;;;;;;17.42;11.18;;;22.40;98.70;;;;;;5093292;28;20439;-75
2022/07/21 01:26:59;;;;;;;15.77;10.30;;;22.40;99.20;;;;;;5109902;28;20055;-76
2022/07/21 01:29:26;;;;;;;14.95;10.48;;;22.40;99.40;;;;;;5111338;28;20051;-76
2022/07/21 01:31:52;;;;;;;16.13;10.48;;;22.30;99.70;;;;;;5108563;28;20028;-76
2022/07/21 01:34:18;;;;;;;20.90;10.77;;;22.30;99.60;;;;;;5109602;28;20031;-75
2022/07/21 01:36:44;;;;;;;17.85;11.10;;;22.30;99.90;;;;;;5109967;28;20023;-75
2022/07/21 01:41:54;;;;;;;16.48;11.20;;;22.30;99.90;;;;;;5110848;28;20024;-75
2022/07/21 01:44:21;;;;;;;15.80;11.55;;;22.30;99.90;;;;;;5108934;28;20093;-75
2022/07/21 01:46:49;;;;;;;16.98;11.30;;;22.20;99.90;;;;;;5110621;28;20104;-76
2022/07/21 01:49:17;;;;;;;17.35;11.00;;;22.10;99.90;;;;;;5111161;28;20016;-76
2022/07/21 01:51:43;;;;;;;18.05;11.20;;;22.20;99.90;;;;;;5110660;28;20055;-77
2022/07/21 01:54:10;;;;;;;18.40;10.00;;;22.20;99.90;;;;;;5089312;28;20031;-77
2022/07/21 01:56:37;;;;;;;20.10;11.32;;;22.10;99.90;;;;;;5110181;28;20028;-76
2022/07/21 01:59:04;;;;;;;18.02;11.98;;;22.10;99.90;;;;;;5105428;28;20417;-75
2022/07/21 02:01:30;;;;;;;15.88;10.68;;;22.10;99.90;;;;;;5109792;28;20031;-77
2022/07/21 02:03:58;;;;;;;15.45;10.73;;;22.10;99.90;;;;;;5109108;28;20023;-75
2022/07/21 02:06:24;;;;;;;17.38;10.90;;;22.10;99.90;;;;;;5109771;28;20024;-76
2022/07/21 02:08:50;;;;;;;18.92;11.52;;;22.00;99.90;;;;;;5111999;28;20020;-76
2022/07/21 02:11:16;;;;;;;18.77;11.75;;;22.00;99.90;;;;;;5110422;28;20034;-77
2022/07/21 02:13:43;;;;;;;20.42;11.75;;;22.00;99.90;;;;;;5109078;28;20028;-75
2022/07/21 02:16:08;;;;;;;19.63;12.13;;;22.00;99.90;;;;;;5092266;28;20452;-76
2022/07/21 02:18:34;;;;;;;18.25;12.07;;;22.00;99.90;;;;;;5092618;28;20031;-75
2022/07/21 02:21:00;;;;;;;19.92;11.73;;;22.00;99.90;;;;;;5106291;28;20123;-75
2022/07/21 02:23:27;;;;;;;19.77;12.30;;;22.00;99.90;;;;;;5108241;28;20128;-76
2022/07/21 02:25:53;;;;;;;21.10;11.95;;;22.00;99.90;;;;;;5109927;28;20031;-76
2022/07/21 02:28:20;;;;;;;22.10;12.85;;;21.90;99.90;;;;;;5110908;28;20068;-75
2022/07/21 02:30:46;;;;;;;18.50;12.20;;;21.90;99.90;;;;;;5108002;28;20491;-76
2022/07/21 02:33:12;;;;;;;20.13;12.57;;;21.90;99.90;;;;;;5105359;28;20027;-75
2022/07/21 02:35:39;;;;;;;20.48;12.20;;;21.80;99.90;;;;;;5105953;28;20074;-76
2022/07/21 02:38:05;;;;;;;20.38;12.32;;;21.80;99.90;;;;;;5108823;28;20110;-76
2022/07/21 02:40:31;;;;;;;23.20;13.02;;;21.80;99.90;;;;;;5109693;28;20157;-76
2022/07/21 02:42:57;;;;;;;21.05;12.65;;;21.80;99.90;;;;;;5109777;28;20028;-76
2022/07/21 02:45:23;;;;;;;26.73;14.00;;;21.70;99.90;;;;;;5108173;28;20102;-77
2022/07/21 02:47:49;;;;;;;24.02;13.50;;;21.70;99.90;;;;;;5107943;28;20027;-77
2022/07/21 02:50:16;;;;;;;21.88;13.90;;;21.70;99.90;;;;;;5108911;28;20028;-76
2022/07/21 02:52:42;;;;;;;25.83;14.10;;;21.70;99.90;;;;;;5109280;28;20110;-76
2022/07/21 02:55:08;;;;;;;23.45;11.93;;;21.70;99.90;;;;;;5107109;28;20114;-76
2022/07/21 02:57:34;;;;;;;20.83;12.45;;;21.70;99.90;;;;;;5109691;28;20028;-76
2022/07/21 03:00:00;;;;;;;18.38;12.00;;;21.70;99.90;;;;;;5105542;28;20034;-76
2022/07/21 03:02:26;;;;;;;20.40;11.95;;;21.70;99.90;;;;;;5109686;28;20038;-75
2022/07/21 03:04:52;;;;;;;22.00;10.95;;;21.60;99.90;;;;;;5108898;28;20040;-76
2022/07/21 03:07:17;;;;;;;19.70;11.30;;;21.60;99.90;;;;;;5109214;28;20441;-76
2022/07/21 03:09:43;;;;;;;15.73;10.43;;;21.60;99.90;;;;;;5108277;28;20027;-76
2022/07/21 03:12:09;;;;;;;18.77;10.73;;;21.60;99.90;;;;;;5109490;28;20565;-77
2022/07/21 03:14:35;;;;;;;17.15;11.05;;;21.60;99.90;;;;;;5085064;28;20141;-76
2022/07/21 03:17:02;;;;;;;18.48;11.15;;;21.60;99.90;;;;;;5109307;28;20077;-76
2022/07/21 03:19:28;;;;;;;15.82;9.13;;;21.60;99.90;;;;;;5110219;28;20032;-77
2022/07/21 03:21:53;;;;;;;17.10;8.90;;;21.60;99.90;;;;;;5110997;28;20098;-76
2022/07/21 03:24:19;;;;;;;16.52;9.10;;;21.60;99.90;;;;;;5108853;28;20016;-76
2022/07/21 03:26:45;;;;;;;16.58;8.80;;;21.60;99.90;;;;;;5109511;28;20491;-75
2022/07/21 03:29:12;;;;;;;13.15;7.90;;;21.60;99.90;;;;;;5111379;28;20149;-76
2022/07/21 03:31:38;;;;;;;19.95;9.02;;;21.60;99.90;;;;;;5109220;28;20027;-76
2022/07/21 03:34:04;;;;;;;15.27;8.15;;;21.50;99.90;;;;;;5110311;28;20032;-76
2022/07/21 03:36:30;;;;;;;19.92;9.15;;;21.50;99.90;;;;;;5108672;28;20502;-76
2022/07/21 03:38:55;;;;;;;22.95;8.73;;;21.50;99.90;;;;;;5110948;28;20027;-78
2022/07/21 03:41:21;;;;;;;17.80;8.45;;;21.50;99.90;;;;;;5108363;28;20063;-75
2022/07/21 03:43:47;;;;;;;18.55;7.85;;;21.50;99.90;;;;;;5091368;28;20016;-77
2022/07/21 03:46:13;;;;;;;15.60;7.10;;;21.50;99.90;;;;;;5110652;28;20542;-76
2022/07/21 03:48:39;;;;;;;17.17;8.07;;;21.50;99.90;;;;;;5091334;28;20028;-77
2022/07/21 03:51:05;;;;;;;15.15;7.95;;;21.50;99.90;;;;;;5089519;28;20055;-76
2022/07/21 03:53:31;;;;;;;18.83;7.45;;;21.60;99.90;;;;;;5110571;28;20031;-76
2022/07/21 03:55:57;;;;;;;15.18;7.75;;;21.50;99.90;;;;;;5110214;28;20268;-76
2022/07/21 03:58:22;;;;;;;14.75;6.38;;;21.50;99.90;;;;;;5109682;28;20384;-76
2022/07/21 04:00:48;;;;;;;18.67;6.95;;;21.50;99.90;;;;;;5090902;28;20026;-77
2022/07/21 04:03:14;;;;;;;13.70;6.85;;;21.50;99.90;;;;;;5111153;28;20020;-77
2022/07/21 04:05:41;;;;;;;16.73;7.20;;;21.50;99.90;;;;;;5111810;28;20020;-77
2022/07/21 04:08:08;;;;;;;12.57;5.93;;;21.60;99.90;;;;;;5117129;28;20027;-77
2022/07/21 04:10:36;;;;;;;19.85;7.20;;;21.60;99.90;;;;;;5113174;28;20641;-76
2022/07/21 04:13:06;;;;;;;18.45;7.13;;;21.60;99.90;;;;;;5114554;28;20451;-76
2022/07/21 04:15:32;;;;;;;16.73;6.50;;;21.60;99.90;;;;;;5111790;28;20046;-75
2022/07/21 04:17:58;;;;;;;18.33;6.25;;;21.60;99.90;;;;;;5112076;28;20039;-75
2022/07/21 04:20:24;;;;;;;17.90;7.40;;;21.60;99.90;;;;;;5118353;28;20028;-76
2022/07/21 04:22:51;;;;;;;22.77;7.15;;;21.60;99.90;;;;;;5111830;28;20016;-76
2022/07/21 04:25:18;;;;;;;21.55;7.97;;;21.60;99.90;;;;;;5112191;28;20034;-77
2022/07/21 04:27:45;;;;;;;18.27;7.80;;;21.60;99.90;;;;;;5112390;28;20034;-76
2022/07/21 04:30:15;;;;;;;24.48;7.18;;;21.60;99.90;;;;;;5112550;28;20027;-77
2022/07/21 04:32:41;;;;;;;19.73;7.63;;;21.70;99.90;;;;;;5090988;28;20020;-76
2022/07/21 04:35:07;;;;;;;17.85;6.50;;;21.60;99.90;;;;;;5112258;28;20034;-76
2022/07/21 04:37:34;;;;;;;16.20;7.00;;;21.70;99.90;;;;;;5113375;28;20101;-77
2022/07/21 04:40:00;;;;;;;15.02;7.00;;;21.70;99.90;;;;;;5112283;28;20039;-77
2022/07/21 04:42:26;;;;;;;24.13;7.47;;;21.70;99.90;;;;;;5112236;28;20503;-77
2022/07/21 04:44:52;;;;;;;17.15;6.53;;;21.70;99.90;;;;;;5111806;28;20141;-77
2022/07/21 04:47:18;;;;;;;18.98;7.18;;;21.70;99.90;;;;;;5112809;28;20540;-75
2022/07/21 04:49:43;;;;;;;16.30;5.88;;;21.80;99.90;;;;;;5111180;28;20019;-75
2022/07/21 04:52:09;;;;;;;13.35;6.47;;;21.70;99.90;;;;;;5111102;28;20016;-76
2022/07/21 04:54:36;;;;;;;15.77;7.18;;;21.80;99.90;;;;;;5088620;28;20055;-77
2022/07/21 04:57:03;;;;;;;14.73;7.00;;;21.90;99.90;;;;;;5111726;28;20039;-77
2022/07/21 04:59:30;;;;;;;16.08;6.20;;;21.90;99.90;;;;;;5113085;28;20088;-77
2022/07/21 05:01:56;;;;;;;14.35;6.32;;;21.80;99.90;;;;;;5111121;28;20119;-76
2022/07/21 05:04:22;;;;;;;11.93;5.70;;;21.80;99.90;;;;;;5111934;28;20027;-76
2022/07/21 05:06:48;;;;;;;15.35;6.22;;;21.80;99.90;;;;;;5111230;28;20511;-77
2022/07/21 05:09:14;;;;;;;15.10;6.30;;;21.90;99.90;;;;;;5110125;28;20019;-78
2022/07/21 05:11:39;;;;;;;11.75;6.32;;;21.80;99.90;;;;;;5111463;28;20034;-78
2022/07/21 05:14:05;;;;;;;12.02;5.50;;;21.70;99.90;;;;;;5092288;28;20034;-75
2022/07/21 05:16:31;;;;;;;14.50;6.28;;;21.70;99.90;;;;;;5093725;28;20040;-77
2022/07/21 05:18:57;;;;;;;13.27;6.00;;;21.70;99.90;;;;;;5093275;28;20050;-76
2022/07/21 05:21:23;;;;;;;17.50;5.75;;;21.70;99.90;;;;;;5111523;28;20027;-77
2022/07/21 05:23:49;;;;;;;12.38;6.22;;;21.80;99.90;;;;;;5113027;28;20057;-77
2022/07/21 05:26:15;;;;;;;14.05;6.30;;;21.70;99.90;;;;;;5110783;28;20023;-77
2022/07/21 05:28:41;;;;;;;13.38;5.85;;;21.70;99.90;;;;;;5110075;28;20127;-77
2022/07/21 05:31:07;;;;;;;13.40;6.07;;;21.80;99.90;;;;;;5112882;28;20566;-76
2022/07/21 05:33:33;;;;;;;11.43;5.53;;;21.80;99.90;;;;;;5110680;28;20023;-77
2022/07/21 05:35:59;;;;;;;14.82;5.72;;;21.80;99.90;;;;;;5110206;28;20429;-77
2022/07/21 05:38:25;;;;;;;13.85;5.55;;;21.70;99.90;;;;;;5110132;28;20041;-76
2022/07/21 05:40:50;;;;;;;12.60;6.20;;;21.70;99.90;;;;;;5110588;28;20105;-77
2022/07/21 05:43:16;;;;;;;15.95;6.00;;;21.70;99.90;;;;;;5109906;28;20437;-80
2022/07/21 05:45:42;;;;;;;12.27;5.75;;;21.70;99.90;;;;;;5111168;28;20041;-77
2022/07/21 05:48:08;;;;;;;19.67;5.93;;;21.70;99.90;;;;;;5110026;28;20222;-76
2022/07/21 05:50:33;;;;;;;13.93;4.97;;;21.70;99.90;;;;;;5110498;28;20024;-77
2022/07/21 05:52:59;;;;;;;14.57;6.13;;;21.70;99.90;;;;;;5112023;28;20084;-78
2022/07/21 05:55:25;;;;;;;10.68;5.60;;;21.70;99.90;;;;;;5091771;28;20119;-77
2022/07/21 05:57:51;;;;;;;14.73;5.95;;;21.80;99.90;;;;;;5090755;28;20020;-78
2022/07/21 06:00:17;;;;;;;10.98;5.45;;;21.70;99.90;;;;;;5090996;28;20032;-77
2022/07/21 06:02:46;;;;;;;14.05;6.05;;;21.80;99.90;;;;;;5109363;28;20450;-77
2022/07/21 06:05:13;;;;;;;16.65;7.05;;;21.80;99.90;;;;;;5110577;28;20015;-77
2022/07/21 06:07:39;;;;;;;8.93;5.47;;;21.80;99.90;;;;;;5109810;28;20495;-76
2022/07/21 06:10:06;;;;;;;9.98;5.70;;;21.70;99.90;;;;;;5109580;28;20470;-78
2022/07/21 06:12:32;;;;;;;16.58;6.88;;;21.80;99.90;;;;;;5112004;28;20300;-76
2022/07/21 06:14:58;;;;;;;14.60;6.28;;;21.80;99.90;;;;;;5092032;28;20436;-77
2022/07/21 06:17:24;;;;;;;15.40;5.88;;;21.80;99.90;;;;;;5109790;28;20064;-77
2022/07/21 06:19:50;;;;;;;13.75;6.30;;;21.70;99.90;;;;;;5110357;28;20050;-77
2022/07/21 06:22:16;;;;;;;9.45;5.80;;;21.70;99.90;;;;;;5111314;28;20067;-77
2022/07/21 06:24:41;;;;;;;15.18;5.80;;;21.70;99.90;;;;;;5109868;28;20030;-76
2022/07/21 06:27:07;;;;;;;13.00;6.72;;;21.80;99.90;;;;;;5110990;28;20027;-76
2022/07/21 06:29:34;;;;;;;12.30;5.95;;;21.80;99.90;;;;;;5109720;28;20057;-76
2022/07/21 06:32:00;;;;;;;12.55;6.47;;;21.80;99.90;;;;;;5110439;28;20084;-78
2022/07/21 06:34:25;;;;;;;14.68;7.15;;;21.80;99.90;;;;;;5110936;28;20028;-76
2022/07/21 06:36:51;;;;;;;17.38;7.20;;;21.70;99.90;;;;;;5109899;28;20503;-77
2022/07/21 06:39:17;;;;;;;16.40;6.95;;;21.60;99.90;;;;;;5109940;28;20027;-77
2022/07/21 06:41:43;;;;;;;18.02;7.07;;;21.60;99.90;;;;;;5093297;28;20049;-76
2022/07/21 06:44:08;;;;;;;15.75;7.13;;;21.60;99.90;;;;;;5111048;28;20516;-76
2022/07/21 06:46:34;;;;;;;16.92;6.90;;;21.60;99.90;;;;;;5094435;28;20023;-77
2022/07/21 06:49:01;;;;;;;16.52;7.55;;;21.70;99.90;;;;;;5111002;28;20020;-76
2022/07/21 06:51:27;;;;;;;13.65;7.10;;;21.70;99.90;;;;;;5092360;28;20038;-76
2022/07/21 06:53:53;;;;;;;12.48;6.90;;;21.70;99.90;;;;;;5109499;28;20423;-76
2022/07/21 06:56:19;;;;;;;15.52;6.68;;;21.70;99.90;;;;;;5108725;28;20028;-76
2022/07/21 06:58:45;;;;;;;14.07;6.60;;;21.80;99.90;;;;;;5108521;28;20431;-77
2022/07/21 07:01:11;;;;;;;17.20;7.55;;;21.80;99.90;;;;;;5108845;28;20048;-77
2022/07/21 07:03:37;;;;;;;18.42;7.30;;;21.80;99.90;;;;;;5110017;28;20020;-77
2022/07/21 07:06:04;;;;;;;11.90;6.93;;;21.70;99.90;;;;;;5108858;28;20529;-77
2022/07/21 07:08:31;;;;;;;13.98;7.07;;;21.80;99.90;;;;;;5108762;28;20056;-76
2022/07/21 07:10:57;;;;;;;13.82;7.05;;;21.70;99.90;;;;;;5108163;28;20028;-77
2022/07/21 07:13:23;;;;;;;15.40;7.80;;;21.70;99.90;;;;;;5109059;28;20031;-77
2022/07/21 07:15:48;;;;;;;15.18;8.00;;;21.60;99.90;;;;;;5110241;28;20479;-75
2022/07/21 07:18:14;;;;;;;15.75;8.13;;;21.50;99.90;;;;;;5091115;28;20097;-75
2022/07/21 07:20:40;;;;;;;15.80;8.18;;;21.50;99.90;;;;;;5108708;28;20059;-76
2022/07/21 07:23:06;;;;;;;17.75;8.60;;;21.50;99.90;;;;;;5110400;28;20031;-76
2022/07/21 07:25:32;;;;;;;15.75;7.55;;;21.50;99.90;;;;;;5110038;28;20015;-76
2022/07/21 07:27:59;;;;;;;14.93;7.97;;;21.50;99.90;;;;;;5109545;28;20054;-76
2022/07/21 07:30:24;;;;;;;19.25;7.78;;;21.50;99.90;;;;;;5108516;28;20028;-77
2022/07/21 07:32:50;;;;;;;20.50;8.75;;;21.50;99.90;;;;;;5109816;28;20073;-77
2022/07/21 07:35:16;;;;;;;13.38;7.57;;;21.50;99.90;;;;;;5090585;28;20028;-76
2022/07/21 07:37:44;;;;;;;16.55;8.32;;;21.60;99.90;;;;;;5110574;28;20024;-77
2022/07/21 07:40:13;;;;;;;12.77;7.85;;;21.60;99.90;;;;;;5116085;28;20024;-76
2022/07/21 07:42:39;;;;;;;19.85;9.50;;;21.60;99.90;;;;;;5112820;28;20039;-77
2022/07/21 07:45:07;;;;;;;18.95;8.82;;;21.50;99.90;;;;;;5113056;28;20189;-76
2022/07/21 07:47:33;;;;;;;16.95;9.10;;;21.50;99.90;;;;;;5112657;28;20032;-76
2022/07/21 07:49:59;;;;;;;14.60;9.13;;;21.50;99.90;;;;;;5112976;28;20023;-77
2022/07/21 07:52:25;;;;;;;18.85;9.85;;;21.60;99.90;;;;;;5112384;28;20080;-77
2022/07/21 07:54:51;;;;;;;17.48;9.82;;;21.60;99.90;;;;;;5113972;28;20027;-76
2022/07/21 07:57:17;;;;;;;17.25;10.63;;;21.70;99.90;;;;;;5112374;28;20522;-77
2022/07/21 07:59:43;;;;;;;18.60;11.27;;;21.70;99.90;;;;;;5095118;28;20031;-77
2022/07/21 08:02:09;;;;;;;17.48;10.63;;;21.70;99.90;;;;;;5094762;28;20038;-76
2022/07/21 08:04:35;;;;;;;19.75;10.43;;;21.70;99.90;;;;;;5111767;28;20032;-77
2022/07/21 08:07:02;;;;;;;23.00;11.55;;;21.80;99.90;;;;;;5111700;28;20028;-77
2022/07/21 08:09:29;;;;;;;24.42;12.93;;;22.00;99.90;;;;;;5113286;28;20429;-77
2022/07/21 08:11:54;;;;;;;16.33;12.02;;;22.00;99.90;;;;;;5113839;28;20019;-77
2022/07/21 08:14:20;;;;;;;18.85;11.45;;;22.10;99.90;;;;;;5111908;28;20028;-77
2022/07/21 08:16:46;;;;;;;19.85;12.50;;;22.10;99.90;;;;;;5112220;28;20035;-78
2022/07/21 08:19:12;;;;;;;25.27;13.82;;;22.10;99.90;;;;;;5111781;28;20028;-77
2022/07/21 08:21:38;;;;;;;20.00;12.98;;;22.10;99.90;;;;;;5095291;28;20418;-77
2022/07/21 08:24:04;;;;;;;22.73;13.75;;;22.00;99.90;;;;;;5095390;28;20019;-77
2022/07/21 08:26:30;;;;;;;21.35;13.35;;;22.10;99.90;;;;;;5112874;28;20479;-77
2022/07/21 08:28:57;;;;;;;17.17;12.60;;;22.20;99.90;;;;;;5112550;28;20035;-76
2022/07/21 08:31:25;;;;;;;21.50;13.00;;;22.30;99.90;;;;;;5112433;28;20070;-78
2022/07/21 08:33:52;;;;;;;23.08;13.35;;;22.50;99.90;;;;;;5112921;28;20551;-78
2022/07/21 08:36:18;;;;;;;21.27;12.70;;;22.70;99.90;;;;;;5115169;28;20024;-77
2022/07/21 08:38:44;;;;;;;19.60;12.95;;;22.80;99.90;;;;;;5112290;28;20023;-77
2022/07/21 08:41:11;;;;;;;20.73;12.63;;;22.80;99.90;;;;;;5112284;28;20035;-77
2022/07/21 08:43:37;;;;;;;23.73;13.77;;;23.00;99.90;;;;;;5110703;28;20498;-78
2022/07/21 08:46:04;;;;;;;20.08;13.10;;;22.90;99.90;;;;;;5110015;28;20039;-78
2022/07/21 08:48:30;;;;;;;26.40;14.55;;;22.90;99.90;;;;;;5078352;28;20035;-77
2022/07/21 08:50:56;;;;;;;26.42;13.55;;;22.90;99.90;;;;;;5094210;28;20063;-77
2022/07/21 08:53:24;;;;;;;22.30;13.60;;;22.80;99.90;;;;;;5111957;28;20031;-77
2022/07/21 08:55:50;;;;;;;24.17;14.20;;;22.70;99.90;;;;;;5112351;28;20406;-77
2022/07/21 08:58:16;;;;;;;19.05;12.75;;;22.60;99.90;;;;;;5095045;28;20020;-77
2022/07/21 09:00:46;;;;;;;22.75;13.77;;;22.70;99.90;;;;;;5112525;28;20497;-77
2022/07/21 09:03:16;;;;;;;18.40;12.35;;;22.70;99.90;;;;;;5111283;28;20068;-77
2022/07/21 09:05:57;;;;;;;18.63;12.23;;;22.60;99.90;;;;;;5095505;28;20026;-76
2022/07/21 09:08:29;;;;;;;23.55;13.63;;;22.70;99.90;;;;;;5112715;28;20023;-76
2022/07/21 09:11:12;;;;;;;20.30;12.68;;;22.80;99.90;;;;;;5112293;28;20035;-77
2022/07/21 09:13:39;;;;;;;17.92;11.85;;;23.00;99.90;;;;;;5111854;28;20040;-77
2022/07/21 09:16:05;;;;;;;16.85;12.35;;;23.10;99.90;;;;;;5112672;28;20036;-78
2022/07/21 09:18:31;;;;;;;18.05;11.80;;;23.30;99.90;;;;;;5112119;28;20034;-77
2022/07/21 09:20:58;;;;;;;19.75;11.68;;;23.50;99.90;;;;;;5112824;28;20038;-78
2022/07/21 09:23:24;;;;;;;18.73;13.00;;;23.70;99.90;;;;;;5111965;28;20016;-78
2022/07/21 09:25:53;;;;;;;19.80;12.75;;;23.60;99.90;;;;;;5113990;28;20487;-77
2022/07/21 09:28:20;;;;;;;18.35;12.00;;;23.80;99.90;;;;;;5115061;28;20363;-77
2022/07/21 09:30:55;;;;;;;18.63;12.50;;;23.80;99.90;;;;;;5111399;28;20020;-77
2022/07/21 09:33:31;;;;;;;18.08;12.13;;;23.60;99.90;;;;;;5111154;28;20080;-77
2022/07/21 09:36:10;;;;;;;16.90;12.02;;;23.50;99.90;;;;;;5109860;28;20028;-77
2022/07/21 09:38:51;;;;;;;20.50;12.38;;;23.40;99.90;;;;;;5111962;28;20023;-77
2022/07/21 09:41:19;;;;;;;18.85;13.20;;;23.20;99.90;;;;;;5110683;28;20066;-76
2022/07/21 09:43:47;;;;;;;18.20;12.35;;;23.10;99.90;;;;;;5112159;28;20023;-77
2022/07/21 09:46:20;;;;;;;18.95;12.35;;;23.10;99.90;;;;;;5112634;28;20039;-77
2022/07/21 09:48:51;;;;;;;17.15;12.75;;;23.20;99.90;;;;;;5110898;28;20069;-78
2022/07/21 09:51:28;;;;;;;18.45;14.27;;;23.30;99.90;;;;;;5111308;28;20376;-76
2022/07/21 09:53:55;;;;;;;17.67;11.98;;;23.30;99.90;;;;;;5109489;28;20400;-76
2022/07/21 09:56:24;;;;;;;19.00;12.82;;;23.60;99.90;;;;;;5092419;28;20432;-77
2022/07/21 09:58:53;;;;;;;18.25;13.73;;;23.70;99.90;;;;;;5092989;28;20027;-77
2022/07/21 10:01:19;;;;;;;20.27;12.43;;;23.80;99.90;;;;;;5109259;28;20499;-77
2022/07/21 10:03:46;;;;;;;17.33;12.63;;;23.70;99.90;;;;;;5109764;28;20023;-78
2022/07/21 10:06:14;;;;;;;17.42;12.82;;;23.90;99.90;;;;;;5093618;28;20022;-77
2022/07/21 10:08:40;;;;;;;18.35;12.50;;;23.90;99.90;;;;;;5120093;27;20024;-77
2022/07/21 10:11:07;;;;;;;16.70;11.40;;;24.00;99.90;;;;;;5119267;28;20036;-77
2022/07/21 10:13:33;;;;;;;17.45;12.45;;;24.10;99.90;;;;;;5109460;28;20019;-76
2022/07/21 10:16:00;;;;;;;17.38;12.50;;;24.20;99.90;;;;;;5109670;28;20031;-75
2022/07/21 10:18:36;;;;;;;16.50;11.77;;;24.20;99.90;;;;;;5118619;27;20480;-76
2022/07/21 10:21:13;;;;;;;17.50;11.68;;;24.30;99.90;;;;;;5110642;28;20036;-76
2022/07/21 10:23:41;;;;;;;16.30;10.85;;;24.20;99.90;;;;;;5108549;28;20032;-76
2022/07/21 10:26:09;;;;;;;15.75;11.80;;;24.20;99.90;;;;;;5109467;28;20015;-78
2022/07/21 10:28:35;;;;;;;14.52;10.30;;;24.30;99.90;;;;;;5110728;28;20027;-77
2022/07/21 10:31:13;;;;;;;14.38;10.52;;;24.50;99.90;;;;;;5109318;28;20054;-76
2022/07/21 10:33:45;;;;;;;15.85;11.05;;;24.50;99.90;;;;;;5110178;28;20511;-77
2022/07/21 10:36:29;;;;;;;13.63;10.25;;;24.70;99.90;;;;;;5107520;28;20069;-77
2022/07/21 10:39:07;;;;;;;16.30;11.40;;;24.80;99.90;;;;;;5107125;28;20034;-76
2022/07/21 10:41:47;;;;;;;14.20;10.48;;;24.70;99.90;;;;;;5109425;28;20092;-76
2022/07/21 10:44:28;;;;;;;12.13;8.80;;;24.70;99.90;;;;;;5110635;28;20096;-76
2022/07/21 10:47:12;;;;;;;14.43;9.75;;;25.00;99.90;;;;;;5107707;28;20015;-77
2022/07/21 10:49:49;;;;;;;12.88;9.40;;;25.00;99.90;;;;;;5109659;28;20028;-76
2022/07/21 10:52:38;;;;;;;12.70;10.18;;;25.20;99.90;;;;;;5108864;28;20020;-77
2022/07/21 10:55:13;;;;;;;12.88;9.00;;;25.40;99.90;;;;;;5108739;28;20019;-76
2022/07/21 10:57:47;;;;;;;14.32;8.95;;;25.30;99.90;;;;;;5108111;28;20051;-76
2022/07/21 11:00:22;;;;;;;11.73;8.65;;;25.20;99.90;;;;;;5109174;28;20039;-76
2022/07/21 11:02:50;;;;;;;11.43;7.35;;;25.30;99.90;;;;;;5108444;28;20076;-76
2022/07/21 11:05:17;;;;;;;9.50;7.20;;;25.30;99.90;;;;;;5108280;28;20023;-77
2022/07/21 11:08:18;;;;;;;10.48;7.28;;;25.40;99.90;;;;;;5110528;28;20017;-76
2022/07/21 11:10:49;;;;;;;7.53;6.53;;;25.50;99.90;;;;;;5091658;28;20084;-76
2022/07/21 11:13:16;;;;;;;7.53;6.32;;;25.70;99.90;;;;;;5112357;28;20047;-76
2022/07/21 11:15:51;;;;;;;11.27;7.13;;;25.80;99.90;;;;;;5113067;28;20027;-77
2022/07/21 11:18:19;;;;;;;9.50;6.78;;;25.60;99.90;;;;;;5114164;28;20032;-76
2022/07/21 11:21:12;;;;;;;8.32;6.70;;;25.50;99.90;;;;;;5111976;28;20024;-77
2022/07/21 11:23:43;;;;;;;8.57;6.40;;;25.30;99.90;;;;;;5113047;28;20506;-75
2022/07/21 11:26:10;;;;;;;7.35;6.00;;;25.10;99.90;;;;;;5113512;28;20028;-77
2022/07/21 11:28:36;;;;;;;6.95;6.07;;;24.90;99.90;;;;;;5113241;28;20055;-77
2022/07/21 11:31:27;;;;;;;6.82;5.75;;;24.70;99.90;;;;;;5113389;28;20032;-77
2022/07/21 11:33:54;;;;;;;8.80;6.78;;;24.60;99.90;;;;;;5104483;28;20483;-77
2022/07/21 11:36:28;;;;;;;10.60;6.35;;;24.70;99.90;;;;;;5113068;28;20020;-77
2022/07/21 11:38:58;;;;;;;8.93;6.68;;;24.60;99.90;;;;;;5112757;28;20030;-77
2022/07/21 11:41:26;;;;;;;6.80;6.10;;;24.90;99.90;;;;;;5113082;28;20112;-76
2022/07/21 11:43:51;;;;;;;6.50;5.63;;;25.50;99.90;;;;;;5112266;28;20024;-76
2022/07/21 11:46:17;;;;;;;6.30;5.65;;;25.80;99.90;;;;;;5113730;28;20027;-77
2022/07/21 11:48:43;;;;;;;6.50;5.57;;;26.00;99.90;;;;;;5113938;28;20070;-76
2022/07/21 11:51:09;;;;;;;6.15;5.55;;;26.20;99.90;;;;;;5112377;28;20107;-78
2022/07/21 11:53:35;;;;;;;5.35;4.80;;;26.70;99.90;;;;;;5112565;28;20407;-78
2022/07/21 11:56:01;;;;;;;5.65;4.68;;;27.30;99.90;;;;;;5114725;28;20035;-77
2022/07/21 11:58:27;;;;;;;6.20;5.45;;;27.30;99.90;;;;;;5112889;28;20536;-77
2022/07/21 12:01:07;;;;;;;6.30;5.05;;;27.40;99.70;;;;;;5111724;28;20024;-77
2022/07/21 12:03:33;;;;;;;4.67;4.23;;;27.80;98.80;;;;;;5112320;28;20479;-77
2022/07/21 12:06:03;;;;;;;6.50;5.05;;;27.80;98.20;;;;;;5113104;28;20330;-77
2022/07/21 12:08:30;;;;;;;6.10;5.40;;;27.80;98.50;;;;;;5113718;28;20503;-78
2022/07/21 12:11:10;;;;;;;5.97;4.57;;;27.90;97.40;;;;;;5120774;27;20027;-77
2022/07/21 12:13:52;;;;;;;;;;;27.70;98.20;;;;;;5113939;28;20577;-76
2022/07/21 12:16:18;;;;;;;5.53;4.70;;;27.80;98.60;;;;;;5104722;28;19911;-77
2022/07/21 12:18:44;;;;;;;5.88;4.18;;;28.10;98.60;;;;;;5113879;28;20509;-77
2022/07/21 12:21:10;;;;;;;5.45;4.13;;;28.60;97.50;;;;;;5113678;28;20449;-77
2022/07/21 12:23:36;;;;;;;5.90;4.75;;;29.20;96.60;;;;;;5111388;28;20046;-78
2022/07/21 12:26:03;;;;;;;5.90;4.13;;;29.90;95.50;;;;;;5118327;28;20015;-81
2022/07/21 12:28:44;;;;;;;6.13;4.35;;;30.70;93.80;;;;;;5117787;28;20028;-78
2022/07/21 12:31:16;;;;;;;6.38;5.70;;;30.30;92.40;;;;;;5112971;28;20063;-78
2022/07/21 12:33:43;;;;;;;17.30;15.10;;;30.20;89.00;;;;;;5115288;22;20049;-77
2022/07/21 12:36:10;;;;;;;66.20;56.47;;;30.00;91.30;;;;;;5074425;28;20040;-78
2022/07/21 12:38:47;;;;;;;8.75;6.03;;;30.20;91.10;;;;;;5044534;28;20492;-77